Time;durP1;ratioP1;P1;durP2;ratioP2;P2;SDS_P1;SDS_P2;PMS_P1;PMS_P2;Temp;Humidity;BMP_temperature;BMP_pressure;BME280_temperature;BME280_humidity;BME280_pressure;Samples;Min_cycle;Max_cycle;Signal;HPM_P1;HPM_P2
2022/05/19 04:00:12;;;;;;;5.30;2.60;;;15.50;95.90;;;;;;6153944;22;20370;31
2022/05/19 04:02:37;;;;;;;6.47;3.43;;;15.80;95.10;;;;;;4970667;28;20532;-74
2022/05/19 04:05:04;;;;;;;3.73;2.00;;;16.00;94.30;;;;;;4974509;28;20405;-74
2022/05/19 04:07:30;;;;;;;5.87;2.37;;;16.10;93.90;;;;;;4974272;28;20650;-74
2022/05/19 04:09:56;;;;;;;4.10;2.13;;;16.30;93.20;;;;;;4974479;28;20460;-75
2022/05/19 04:12:22;;;;;;;4.30;1.77;;;16.60;92.60;;;;;;4974195;28;20545;-75
2022/05/19 04:14:48;;;;;;;4.27;2.10;;;16.90;91.20;;;;;;4982394;28;20456;-76
2022/05/19 04:17:14;;;;;;;5.20;2.00;;;17.30;90.10;;;;;;4987009;28;20263;-75
2022/05/19 04:19:39;;;;;;;2.43;2.07;;;17.60;88.70;;;;;;4981837;28;20470;-75
2022/05/19 05:14:54;;;;;;;2.60;2.40;;;20.50;81.50;;;;;;4887059;29;20536;-77
2022/05/19 05:17:21;;;;;;;3.57;2.00;;;20.90;80.40;;;;;;4894950;29;20874;-77
2022/05/19 05:19:47;;;;;;;5.27;1.93;;;21.00;79.70;;;;;;4901432;29;20183;-76
2022/05/19 05:22:13;;;;;;;4.73;2.10;;;21.40;79.00;;;;;;4966222;28;20471;-78
2022/05/19 05:24:39;;;;;;;3.47;1.90;;;21.70;77.90;;;;;;4992688;28;20912;-77
2022/05/19 05:27:05;;;;;;;6.17;2.43;;;22.30;76.60;;;;;;4974920;28;20188;-77
2022/05/19 05:29:31;;;;;;;3.20;2.20;;;21.70;76.50;;;;;;4990564;28;20429;-77
2022/05/19 05:31:57;;;;;;;5.70;2.50;;;21.80;79.40;;;;;;4989918;28;20340;-77
2022/05/19 05:34:23;;;;;;;4.80;1.97;;;22.30;77.40;;;;;;4992545;28;20535;-76
2022/05/19 05:36:49;;;;;;;5.93;2.10;;;22.40;75.70;;;;;;4992364;28;20173;-76
2022/05/19 05:39:14;;;;;;;3.70;1.90;;;23.70;75.00;;;;;;4991455;28;20421;-75
2022/05/19 05:41:40;;;;;;;3.83;1.80;;;24.30;72.30;;;;;;4991675;28;20432;-77
2022/05/19 05:44:06;;;;;;;3.50;2.00;;;24.50;71.80;;;;;;4981563;28;20182;-77
2022/05/19 05:46:31;;;;;;;7.87;2.30;;;24.20;71.60;;;;;;4992633;28;20213;-77
2022/05/19 05:48:57;;;;;;;4.60;1.73;;;24.10;72.40;;;;;;4992988;28;20224;-75
2022/05/19 05:51:22;;;;;;;8.03;1.93;;;24.30;72.80;;;;;;4995888;28;20232;-77
2022/05/19 05:53:48;;;;;;;2.77;1.70;;;24.10;72.00;;;;;;4991929;28;20212;-76
2022/05/19 05:56:17;;;;;;;2.73;1.60;;;24.10;73.30;;;;;;4988823;28;20700;-76
2022/05/19 05:58:43;;;;;;;2.60;1.90;;;24.20;72.00;;;;;;4991019;28;20232;-76
2022/05/19 06:01:11;;;;;;;3.20;2.10;;;22.70;75.60;;;;;;4992144;28;21004;-76
2022/05/19 06:03:37;;;;;;;3.20;1.90;;;23.10;74.30;;;;;;5002541;28;20423;-76
2022/05/19 06:06:03;;;;;;;6.33;2.27;;;23.40;74.70;;;;;;5011733;28;20507;-77
2022/05/19 06:08:29;;;;;;;1.73;1.53;;;23.50;73.80;;;;;;5011637;28;20498;-77
2022/05/19 06:10:55;;;;;;;2.90;1.77;;;23.90;73.10;;;;;;5011851;28;20518;-76
2022/05/19 06:13:21;;;;;;;4.03;1.60;;;24.20;71.40;;;;;;5012056;28;20195;-74
2022/05/19 06:15:47;;;;;;;7.20;2.50;;;24.30;72.00;;;;;;5001102;28;20196;-74
2022/05/19 06:18:12;;;;;;;3.97;1.63;;;24.40;71.70;;;;;;4991963;28;20447;-74
2022/05/19 06:20:39;;;;;;;4.90;1.70;;;24.30;71.00;;;;;;4992108;28;20208;-77
2022/05/19 06:23:05;;;;;;;3.83;2.07;;;24.00;73.40;;;;;;4992228;28;20177;-74
2022/05/19 06:25:32;;;;;;;6.40;1.87;;;25.10;69.90;;;;;;4992352;28;20751;-74
2022/05/19 06:27:59;;;;;;;3.43;2.37;;;25.90;70.00;;;;;;4992016;28;20420;-74
2022/05/19 06:30:25;;;;;;;3.43;1.93;;;26.20;67.50;;;;;;4992131;28;20408;-75
2022/05/19 06:32:50;;;;;;;4.50;1.57;;;26.50;66.90;;;;;;4992805;28;20430;-74
2022/05/19 06:35:19;;;;;;;5.20;2.00;;;26.90;67.00;;;;;;4995751;28;20208;-74
2022/05/19 06:37:45;;;;;;;3.73;1.40;;;26.90;65.30;;;;;;4977951;28;20837;-74
2022/05/19 06:40:13;;;;;;;2.40;1.50;;;27.20;65.90;;;;;;4995601;28;20561;-74
2022/05/19 06:42:39;;;;;;;4.03;1.87;;;27.40;65.80;;;;;;4995606;28;20581;-76
2022/05/19 06:45:06;;;;;;;2.53;1.50;;;27.10;65.40;;;;;;4995718;28;20404;-77
2022/05/19 06:47:32;;;;;;;4.67;1.80;;;27.00;64.90;;;;;;4995263;28;20191;-74
2022/05/19 06:49:58;;;;;;;3.07;1.67;;;26.20;65.40;;;;;;4977933;28;20420;-74
2022/05/19 06:52:29;;;;;;;4.53;1.87;;;25.70;65.70;;;;;;4995433;28;20201;-74
2022/05/19 06:54:57;;;;;;;2.23;1.70;;;26.00;66.50;;;;;;4995553;28;20452;-74
2022/05/19 06:57:24;;;;;;;3.97;2.30;;;25.70;64.90;;;;;;4995404;28;20459;-74
2022/05/19 06:59:51;;;;;;;4.70;1.80;;;26.00;66.10;;;;;;4995204;28;20467;-75
2022/05/19 07:02:19;;;;;;;3.00;1.47;;;26.40;65.70;;;;;;4995111;28;20515;-74
2022/05/19 07:04:44;;;;;;;5.20;1.83;;;27.00;63.30;;;;;;4995109;28;20487;-74
2022/05/19 07:07:11;;;;;;;5.90;1.70;;;26.30;65.30;;;;;;4995057;28;20407;-75
2022/05/19 07:09:38;;;;;;;2.30;1.10;;;26.90;63.50;;;;;;4994974;28;20268;-74
2022/05/19 07:12:05;;;;;;;4.40;2.00;;;26.30;63.90;;;;;;4994975;28;20432;-74
2022/05/19 07:14:31;;;;;;;4.93;1.80;;;26.50;63.30;;;;;;4994783;28;20460;-73
2022/05/19 07:16:57;;;;;;;1.77;1.30;;;26.10;64.20;;;;;;4994830;28;20490;-74
2022/05/19 07:22:13;;;;;;;3.87;1.67;;;25.40;64.00;;;;;;4994838;28;20343;-74
2022/05/19 07:24:39;;;;;;;1.87;1.10;;;26.10;62.70;;;;;;4994826;28;20408;-74
2022/05/19 07:27:05;;;;;;;5.63;1.43;;;25.90;59.70;;;;;;4995091;28;20415;-75
2022/05/19 07:29:31;;;;;;;2.33;1.50;;;25.70;60.60;;;;;;4994442;28;20665;-74
2022/05/19 07:32:01;;;;;;;2.70;1.30;;;25.40;60.50;;;;;;4994534;28;20440;-76
2022/05/19 07:34:28;;;;;;;4.07;1.40;;;24.90;60.60;;;;;;4994594;28;20288;-73
2022/05/19 07:36:55;;;;;;;2.83;1.00;;;26.00;59.30;;;;;;4994492;28;20511;-74
2022/05/19 07:39:21;;;;;;;13.40;1.27;;;26.60;57.20;;;;;;4994223;28;20405;-76
2022/05/19 07:41:47;;;;;;;2.30;1.10;;;27.00;58.10;;;;;;4994375;28;20791;-73
2022/05/19 07:44:13;;;;;;;2.87;1.50;;;26.90;55.00;;;;;;4994202;28;20508;-73
2022/05/19 07:46:39;;;;;;;1.50;1.40;;;26.50;56.20;;;;;;4994393;28;20470;-76
2022/05/19 07:49:05;;;;;;;1.80;1.17;;;25.70;58.90;;;;;;4994190;28;20454;-76
2022/05/19 07:51:37;;;;;;;2.60;1.20;;;25.10;58.60;;;;;;4994284;28;20439;-76
2022/05/19 07:54:04;;;;;;;4.63;1.30;;;25.20;59.10;;;;;;4994268;28;20543;-73
2022/05/19 07:56:30;;;;;;;1.30;1.00;;;25.00;60.00;;;;;;4976725;28;20421;-74
2022/05/19 07:58:55;;;;;;;3.47;1.27;;;24.50;59.40;;;;;;4993952;28;20462;-76
2022/05/19 08:01:21;;;;;;;4.10;1.70;;;24.60;58.90;;;;;;4976599;28;20198;-73
2022/05/19 08:03:47;;;;;;;1.40;1.10;;;24.60;60.90;;;;;;4994079;28;20267;-74
2022/05/19 08:06:12;;;;;;;4.67;1.13;;;24.80;58.80;;;;;;4993873;28;20188;-74
2022/05/19 08:08:39;;;;;;;2.40;1.27;;;24.90;61.00;;;;;;4993726;28;20655;-73
2022/05/19 08:11:05;;;;;;;5.00;1.10;;;25.40;59.50;;;;;;4993835;28;20304;-73
2022/05/19 08:16:15;;;;;;;1.50;1.40;;;25.20;59.00;;;;;;4994021;28;20315;-73
2022/05/19 08:18:40;;;;;;;3.13;1.37;;;24.90;58.70;;;;;;4993597;28;20495;-73
2022/05/19 08:21:09;;;;;;;1.87;1.10;;;25.30;57.40;;;;;;4993551;28;20208;-77
2022/05/19 08:23:38;;;;;;;3.00;1.00;;;24.90;56.90;;;;;;4993721;28;20696;-74
2022/05/19 08:26:05;;;;;;;1.67;1.10;;;24.70;58.50;;;;;;4993723;28;20902;-73
2022/05/19 08:28:31;;;;;;;2.63;1.33;;;25.30;57.10;;;;;;4993446;28;20445;-76
2022/05/19 08:31:01;;;;;;;1.70;1.20;;;25.20;56.90;;;;;;4993622;28;20487;-73
2022/05/19 08:33:28;;;;;;;2.13;1.20;;;24.70;57.20;;;;;;4993665;28;20413;-72
2022/05/19 08:35:54;;;;;;;5.83;1.53;;;25.30;56.30;;;;;;4993483;28;20988;-73
2022/05/19 08:38:21;;;;;;;2.40;1.27;;;25.00;56.60;;;;;;4993370;28;20409;-73
2022/05/19 08:40:54;;;;;;;2.03;1.20;;;25.40;55.80;;;;;;4993513;28;20432;-76
2022/05/19 08:43:33;;;;;;;2.17;1.30;;;26.10;56.50;;;;;;4993496;28;20408;-73
2022/05/19 08:46:01;;;;;;;2.80;1.27;;;26.10;55.60;;;;;;4993507;28;20404;-73
2022/05/19 08:48:28;;;;;;;1.57;1.10;;;26.10;54.80;;;;;;4993028;28;20495;-76
2022/05/19 08:50:55;;;;;;;10.33;1.50;;;26.20;55.80;;;;;;4993340;28;20483;-74
2022/05/19 08:53:27;;;;;;;2.40;1.10;;;25.90;53.40;;;;;;4993222;28;20505;-76
2022/05/19 08:55:59;;;;;;;3.20;1.47;;;26.20;54.40;;;;;;4992519;28;20397;-73
2022/05/19 08:58:36;;;;;;;3.33;1.43;;;25.70;55.30;;;;;;4993019;28;20393;-73
2022/05/19 09:01:09;;;;;;;3.30;1.40;;;25.60;54.40;;;;;;4993116;28;20424;-73
2022/05/19 09:03:51;;;;;;;1.37;1.20;;;24.80;55.80;;;;;;4993063;28;20413;-73
2022/05/19 09:06:29;;;;;;;1.47;1.10;;;25.00;55.50;;;;;;4993155;28;20401;-73
2022/05/19 09:09:31;;;;;;;5.07;1.20;;;24.90;56.40;;;;;;4992961;28;20812;-72
2022/05/19 09:12:04;;;;;;;2.90;1.10;;;25.10;54.90;;;;;;4992902;28;20907;-73
2022/05/19 09:14:31;;;;;;;7.17;1.40;;;25.70;55.40;;;;;;4992828;28;20537;-74
2022/05/19 09:17:10;;;;;;;7.33;1.40;;;25.50;54.10;;;;;;4992775;28;20441;-73
2022/05/19 09:19:42;;;;;;;2.77;1.20;;;24.60;54.50;;;;;;4992580;28;20491;-73
2022/05/19 09:22:17;;;;;;;1.70;1.60;;;24.60;54.60;;;;;;4992870;28;20433;-73
2022/05/19 09:24:49;;;;;;;1.80;1.30;;;24.70;54.70;;;;;;4992730;28;20511;-73
2022/05/19 09:27:16;;;;;;;1.40;1.00;;;25.00;55.10;;;;;;4992808;28;20446;-73
2022/05/19 09:29:50;;;;;;;5.70;1.40;;;25.00;54.90;;;;;;4992798;28;20409;-73
2022/05/19 09:32:31;;;;;;;1.67;0.77;;;25.60;54.20;;;;;;4992931;28;20420;-73
2022/05/19 09:35:25;;;;;;;3.57;1.27;;;25.30;51.60;;;;;;4993009;28;20452;-72
2022/05/19 09:38:13;;;;;;;5.67;2.10;;;25.30;52.70;;;;;;4975484;28;20780;-73
2022/05/19 09:40:42;;;;;;;4.50;1.50;;;24.40;52.90;;;;;;4993037;28;20822;-75
2022/05/19 09:43:19;;;;;;;3.37;1.13;;;24.80;52.40;;;;;;4992946;28;20416;-73
2022/05/19 09:45:51;;;;;;;2.30;0.90;;;25.40;51.50;;;;;;4992837;28;20407;-76
2022/05/19 09:48:27;;;;;;;8.93;1.23;;;26.10;52.80;;;;;;4992387;28;20440;-73
2022/05/19 09:51:08;;;;;;;3.30;1.20;;;26.10;51.00;;;;;;4992584;28;20440;-73
2022/05/19 09:53:47;;;;;;;2.67;1.00;;;26.50;53.60;;;;;;4973070;28;20913;-73
2022/05/19 09:56:17;;;;;;;6.07;1.00;;;26.40;50.70;;;;;;4973204;28;20464;-73
2022/05/19 09:58:46;;;;;;;3.03;0.97;;;26.00;52.00;;;;;;4972869;28;20405;-73
2022/05/19 10:01:25;;;;;;;2.63;1.20;;;26.50;51.80;;;;;;4972855;28;20441;-76
2022/05/19 10:03:58;;;;;;;2.70;0.90;;;26.30;50.10;;;;;;4972927;28;20417;-73
2022/05/19 10:06:33;;;;;;;6.00;1.33;;;26.10;50.40;;;;;;4977633;28;20420;-74
2022/05/19 10:09:10;;;;;;;6.00;1.40;;;26.80;50.90;;;;;;4993793;28;20922;-74
2022/05/19 10:11:48;;;;;;;4.90;1.60;;;26.60;50.20;;;;;;4996082;28;20439;-74
2022/05/19 10:14:18;;;;;;;2.53;1.30;;;26.50;54.70;;;;;;4979428;28;20459;-77
2022/05/19 10:17:02;;;;;;;3.63;1.47;;;26.50;50.60;;;;;;4976491;28;20520;-74
2022/05/19 10:19:43;;;;;;;2.67;1.33;;;26.80;50.40;;;;;;4992939;28;20460;-76
2022/05/19 10:22:43;;;;;;;2.30;1.10;;;26.30;50.80;;;;;;4978146;28;20447;-75
2022/05/19 10:25:30;;;;;;;2.67;1.20;;;26.10;51.00;;;;;;4979714;28;20528;-75
2022/05/19 10:32:01;;;;;;;5.47;1.30;;;27.00;49.50;;;;;;4995493;28;20949;-77
2022/05/19 10:34:54;;;;;;;4.50;1.33;;;26.20;48.50;;;;;;4958607;28;21129;-75
2022/05/19 10:38:02;;;;;;;4.10;1.30;;;26.50;51.00;;;;;;4986818;28;20507;-75
2022/05/19 10:40:56;;;;;;;3.10;1.10;;;26.50;51.40;;;;;;4975897;28;20487;-75
2022/05/19 10:43:48;;;;;;;1.73;1.10;;;26.30;50.50;;;;;;4975953;28;20409;-75
2022/05/19 10:46:15;;;;;;;6.17;1.43;;;26.40;51.20;;;;;;4976543;28;20917;-76
2022/05/19 10:48:48;;;;;;;1.50;1.00;;;26.30;53.40;;;;;;4989341;28;20432;-76
2022/05/19 10:51:17;;;;;;;1.70;1.10;;;26.60;53.00;;;;;;4995218;28;20436;-76
2022/05/19 10:53:59;;;;;;;3.30;1.30;;;26.80;48.80;;;;;;4995201;28;21026;-76
2022/05/19 10:57:16;;;;;;;6.97;1.20;;;27.20;50.60;;;;;;5008731;28;21064;-76
2022/05/19 11:00:01;;;;;;;1.50;1.10;;;26.70;51.20;;;;;;4960479;28;20426;-76
2022/05/19 11:03:13;;;;;;;1.80;0.97;;;26.60;50.10;;;;;;5014775;28;20419;-76
2022/05/19 11:05:51;;;;;;;2.10;1.33;;;26.10;50.50;;;;;;4993584;28;20432;-77
2022/05/19 11:08:24;;;;;;;1.43;1.00;;;26.50;50.50;;;;;;4975402;28;20484;-76
2022/05/19 11:11:04;;;;;;;4.50;1.50;;;26.60;49.60;;;;;;4975497;28;20508;-76
2022/05/19 11:13:37;;;;;;;2.97;1.13;;;26.90;48.70;;;;;;4984182;28;20428;-76
2022/05/19 11:16:24;;;;;;;17.73;1.63;;;27.00;49.30;;;;;;4957839;28;21204;-77
2022/05/19 11:18:58;;;;;;;3.00;1.10;;;26.90;47.30;;;;;;4957135;28;20425;-76
2022/05/19 11:21:55;;;;;;;1.53;0.90;;;27.20;49.30;;;;;;4992182;28;20447;-76
2022/05/19 11:24:26;;;;;;;5.10;1.40;;;27.00;48.40;;;;;;4975515;28;20508;-77
2022/05/19 11:27:13;;;;;;;1.10;1.00;;;27.00;51.60;;;;;;4974566;28;20519;-77
2022/05/19 11:30:01;;;;;;;4.53;1.00;;;27.40;49.40;;;;;;4979828;28;20479;-76
2022/05/19 11:32:35;;;;;;;6.33;1.30;;;27.50;49.10;;;;;;4981659;28;20446;-76
2022/05/19 11:35:22;;;;;;;4.70;1.00;;;27.00;49.50;;;;;;4977269;28;20485;-76
2022/05/19 11:38:19;;;;;;;1.70;1.03;;;26.90;49.60;;;;;;5007337;28;20513;-77
2022/05/19 11:40:48;;;;;;;1.60;1.10;;;27.10;50.40;;;;;;5014160;28;20431;-76
2022/05/19 11:43:39;;;;;;;1.53;0.90;;;27.30;47.90;;;;;;5014036;28;20411;-77
2022/05/19 11:46:22;;;;;;;6.03;1.20;;;27.60;49.60;;;;;;4982016;28;20830;-76
2022/05/19 11:57:55;;;;;;;4.93;1.13;;;27.60;49.00;;;;;;4974744;28;20408;-76
2022/05/19 12:00:26;;;;;;;2.10;1.33;;;28.30;51.60;;;;;;4976985;28;20414;-78
2022/05/19 12:03:13;;;;;;;1.20;1.10;;;28.20;51.20;;;;;;4995448;28;20423;-76
2022/05/19 12:05:40;;;;;;;1.47;1.00;;;27.80;51.10;;;;;;4982084;28;20432;-76
2022/05/19 12:08:12;;;;;;;1.47;1.00;;;27.50;51.80;;;;;;4985284;28;20433;-76
2022/05/19 12:10:43;;;;;;;3.33;1.10;;;27.20;53.10;;;;;;4974326;28;20436;-77
2022/05/19 12:13:10;;;;;;;2.70;1.40;;;26.90;54.90;;;;;;4974414;28;20436;-77
2022/05/19 12:15:51;;;;;;;4.03;1.50;;;26.90;54.90;;;;;;4973997;28;20595;-75
2022/05/19 12:18:23;;;;;;;2.60;1.30;;;27.50;58.80;;;;;;4956915;28;20760;-77
2022/05/19 12:20:53;;;;;;;2.40;1.27;;;27.60;59.10;;;;;;4956671;28;20445;-76
2022/05/19 12:23:30;;;;;;;2.30;1.40;;;27.70;54.70;;;;;;4974538;28;20413;-77
2022/05/19 12:26:17;;;;;;;3.00;1.40;;;27.80;54.70;;;;;;4980050;28;20943;-78
2022/05/19 12:29:15;;;;;;;5.80;1.40;;;27.80;57.40;;;;;;4994701;28;20424;-76
2022/05/19 12:32:06;;;;;;;4.47;1.30;;;27.70;57.60;;;;;;4992525;28;20440;-78
2022/05/19 12:34:44;;;;;;;6.83;1.57;;;28.00;57.10;;;;;;4974002;28;20466;-77
2022/05/19 12:37:33;;;;;;;5.57;1.40;;;27.90;58.60;;;;;;4996523;28;20424;-76
2022/05/19 12:40:20;;;;;;;2.53;1.20;;;28.10;58.90;;;;;;4993309;28;20412;-76
2022/05/19 12:42:48;;;;;;;3.60;1.50;;;28.20;58.30;;;;;;4975605;28;20425;-76
2022/05/19 12:45:20;;;;;;;5.40;1.43;;;28.30;60.30;;;;;;4981925;28;20467;-75
2022/05/19 12:48:00;;;;;;;9.43;1.70;;;28.50;57.20;;;;;;4997887;28;20432;-76
2022/05/19 12:50:51;;;;;;;4.90;1.37;;;28.30;58.70;;;;;;5002387;28;20929;-77
2022/05/19 12:53:22;;;;;;;4.10;2.00;;;28.10;56.50;;;;;;5000124;28;20411;-76
2022/05/19 12:55:51;;;;;;;2.97;1.40;;;27.90;58.80;;;;;;5012660;28;21025;-77
2022/05/19 12:58:38;;;;;;;2.07;1.40;;;28.10;57.90;;;;;;4998068;28;20427;-77
2022/05/19 13:01:23;;;;;;;11.50;1.60;;;28.30;58.60;;;;;;4978449;28;20444;-77
2022/05/19 13:04:06;;;;;;;1.53;1.40;;;28.50;59.60;;;;;;4984097;28;20440;-78
2022/05/19 13:06:33;;;;;;;3.03;1.30;;;28.50;57.70;;;;;;4990274;28;20531;-76
2022/05/19 13:09:04;;;;;;;6.90;1.70;;;28.50;57.60;;;;;;4971920;28;20436;-75
2022/05/19 13:11:34;;;;;;;1.70;1.30;;;28.50;58.40;;;;;;4992532;28;20439;-74
2022/05/19 13:14:05;;;;;;;2.27;1.37;;;28.90;58.60;;;;;;4992545;28;20480;-78
2022/05/19 13:16:33;;;;;;;6.60;1.40;;;28.90;57.80;;;;;;5008497;28;20921;-76
2022/05/19 13:19:05;;;;;;;4.53;2.23;;;28.60;59.60;;;;;;5012126;28;20465;-74
2022/05/19 13:21:37;;;;;;;2.23;1.30;;;27.90;61.90;;;;;;5000727;28;20436;-77
2022/05/19 13:24:10;;;;;;;3.00;1.40;;;27.70;59.90;;;;;;4999213;28;20507;-75
2022/05/19 13:26:38;;;;;;;2.70;1.50;;;28.10;60.60;;;;;;4990993;28;20424;-75
2022/05/19 13:32:11;;;;;;;3.13;1.67;;;28.40;59.70;;;;;;4992528;28;20945;-74
2022/05/19 13:34:45;;;;;;;14.37;1.77;;;28.50;59.60;;;;;;4987450;28;20464;-77
2022/05/19 13:37:10;;;;;;;3.23;1.67;;;28.20;60.90;;;;;;4973315;28;20414;-75
2022/05/19 13:39:36;;;;;;;2.13;1.60;;;28.00;59.60;;;;;;4973008;28;20521;-75
2022/05/19 13:42:09;;;;;;;1.80;1.30;;;27.40;61.60;;;;;;4974042;28;20748;-76
2022/05/19 13:44:37;;;;;;;1.43;1.33;;;27.80;61.10;;;;;;4977226;28;20174;-74
2022/05/19 13:47:22;;;;;;;5.73;1.43;;;27.90;62.60;;;;;;4993150;28;20412;-77
2022/05/19 13:49:53;;;;;;;3.10;1.43;;;27.70;61.60;;;;;;4993581;28;20424;-77
2022/05/19 13:52:21;;;;;;;8.40;1.70;;;28.00;60.60;;;;;;4996511;28;20462;-77
2022/05/19 13:54:47;;;;;;;3.50;1.50;;;28.20;60.40;;;;;;4996310;28;20469;-77
2022/05/19 13:57:24;;;;;;;2.57;1.47;;;28.30;60.90;;;;;;4996376;28;20499;-77
2022/05/19 13:59:57;;;;;;;2.60;1.40;;;28.40;61.30;;;;;;4996345;28;20411;-77
2022/05/19 14:02:38;;;;;;;2.40;1.50;;;28.40;60.00;;;;;;5015984;28;20423;-77
2022/05/19 14:05:07;;;;;;;5.63;1.77;;;27.90;60.30;;;;;;5013265;28;20415;-76
2022/05/19 14:07:34;;;;;;;9.00;1.67;;;27.60;61.30;;;;;;4997570;28;20414;-77
2022/05/19 14:10:28;;;;;;;2.13;1.30;;;27.80;62.50;;;;;;4984109;28;20420;-76
2022/05/19 14:12:56;;;;;;;5.03;1.60;;;28.00;62.20;;;;;;4996147;28;20518;-76
2022/05/19 14:15:39;;;;;;;6.67;1.50;;;28.00;63.10;;;;;;4995932;28;20470;-76
2022/05/19 14:18:18;;;;;;;4.93;1.47;;;28.20;60.90;;;;;;4994252;28;20435;-73
2022/05/19 14:21:03;;;;;;;2.70;1.67;;;28.10;62.20;;;;;;4997687;28;20448;-76
2022/05/19 14:23:46;;;;;;;2.00;1.30;;;28.30;61.00;;;;;;4995981;28;20412;-76
2022/05/19 14:26:13;;;;;;;5.60;1.60;;;28.30;60.70;;;;;;5012522;28;20407;-76
2022/05/19 14:28:44;;;;;;;2.77;1.83;;;28.20;60.90;;;;;;5015127;28;20430;-76
2022/05/19 14:31:28;;;;;;;3.30;1.50;;;28.40;60.50;;;;;;5015405;28;20927;-76
2022/05/19 14:34:21;;;;;;;3.43;1.60;;;28.00;61.10;;;;;;5015392;28;20508;-76
2022/05/19 14:36:57;;;;;;;2.90;1.40;;;27.50;61.50;;;;;;5011344;28;20498;-76
2022/05/19 14:39:31;;;;;;;3.90;1.10;;;27.20;61.60;;;;;;4995430;28;20411;-76
2022/05/19 14:44:44;;;;;;;9.43;1.47;;;27.80;62.50;;;;;;4995802;28;20495;-76
2022/05/19 14:47:16;;;;;;;2.53;1.60;;;27.90;61.80;;;;;;4995484;28;20412;-76
2022/05/19 14:49:46;;;;;;;1.73;1.53;;;27.70;62.00;;;;;;4995208;28;20408;-75
2022/05/19 14:52:12;;;;;;;3.70;1.20;;;27.60;62.40;;;;;;4977731;28;20459;-76
2022/05/19 14:54:39;;;;;;;10.13;1.33;;;27.80;62.20;;;;;;4994177;28;20459;-76
2022/05/19 14:57:16;;;;;;;3.00;1.57;;;27.50;62.70;;;;;;4995042;28;20547;-76
2022/05/19 14:59:53;;;;;;;3.90;1.37;;;27.40;63.20;;;;;;4996453;28;20505;-77
2022/05/19 15:02:19;;;;;;;6.83;1.57;;;27.10;62.30;;;;;;5006455;28;20427;-75
2022/05/19 15:04:45;;;;;;;12.73;2.70;;;27.20;62.00;;;;;;5013809;28;20411;-75
2022/05/19 15:07:24;;;;;;;3.30;1.40;;;27.60;64.10;;;;;;5013897;28;20769;-75
2022/05/19 15:09:50;;;;;;;3.87;1.40;;;27.80;62.40;;;;;;5014500;28;20195;-76
2022/05/19 15:12:15;;;;;;;3.70;1.30;;;27.60;61.00;;;;;;5014415;28;20435;-76
2022/05/19 15:14:41;;;;;;;7.10;1.50;;;27.60;62.80;;;;;;4999258;28;20227;-76
2022/05/19 15:17:07;;;;;;;3.57;1.47;;;27.30;61.40;;;;;;4995027;28;20173;-76
2022/05/19 15:19:33;;;;;;;2.90;1.67;;;27.10;61.60;;;;;;4994644;28;20280;-75
2022/05/19 15:21:59;;;;;;;2.80;1.27;;;26.90;63.70;;;;;;4977050;28;20629;-76
2022/05/19 15:24:25;;;;;;;2.37;1.50;;;27.30;63.20;;;;;;4994646;28;20440;-76
2022/05/19 15:26:56;;;;;;;6.30;1.57;;;27.50;62.70;;;;;;4994329;28;20205;-76
2022/05/19 15:29:21;;;;;;;4.83;1.20;;;27.20;63.70;;;;;;4984704;28;20200;-76
2022/05/19 15:31:47;;;;;;;3.40;1.40;;;27.30;63.10;;;;;;4999629;28;20870;-75
2022/05/19 15:34:13;;;;;;;2.27;1.50;;;27.30;63.20;;;;;;5003595;28;20209;-77
2022/05/19 15:36:39;;;;;;;4.50;2.60;;;27.40;64.20;;;;;;4999347;28;20260;-77
2022/05/19 15:39:04;;;;;;;9.13;1.43;;;27.30;62.50;;;;;;5004212;28;20490;-77
2022/05/19 15:41:30;;;;;;;4.80;1.60;;;27.20;64.50;;;;;;5000949;28;20664;-76
2022/05/19 15:43:57;;;;;;;4.83;1.60;;;27.00;64.10;;;;;;4999082;28;20255;-75
2022/05/19 15:46:23;;;;;;;3.40;1.40;;;27.30;63.40;;;;;;4999313;28;20176;-74
2022/05/19 15:48:50;;;;;;;5.60;1.83;;;27.00;63.70;;;;;;4995840;28;20487;-75
2022/05/19 15:51:18;;;;;;;59.13;2.80;;;27.00;65.50;;;;;;4992516;28;20189;-75
2022/05/19 15:53:43;;;;;;;2.87;1.30;;;26.70;64.90;;;;;;4991002;28;20825;-75
2022/05/19 15:56:08;;;;;;;7.20;1.43;;;26.00;65.70;;;;;;4992667;28;20425;-77
2022/05/19 15:58:35;;;;;;;2.40;1.53;;;26.10;65.70;;;;;;4992193;28;20169;-77
2022/05/19 16:01:03;;;;;;;2.33;1.50;;;25.50;67.20;;;;;;4987974;28;20188;-77
2022/05/19 16:03:32;;;;;;;4.17;1.50;;;25.50;67.20;;;;;;4992249;28;20491;-77
2022/05/19 16:06:00;;;;;;;4.27;1.40;;;25.40;67.40;;;;;;4991729;28;20416;-77
2022/05/19 16:08:27;;;;;;;6.87;1.33;;;25.20;67.90;;;;;;4992558;28;20423;-76
2022/05/19 16:10:52;;;;;;;7.30;1.50;;;25.30;67.50;;;;;;4993732;28;20455;-75
2022/05/19 16:13:19;;;;;;;5.27;1.50;;;25.30;66.80;;;;;;4997060;28;20424;-75
2022/05/19 16:15:45;;;;;;;2.53;1.00;;;25.50;66.60;;;;;;5000230;28;20248;-77
2022/05/19 16:18:11;;;;;;;11.90;1.40;;;25.60;67.00;;;;;;4992573;28;20495;-76
2022/05/19 16:20:37;;;;;;;7.43;1.80;;;25.90;67.10;;;;;;4993402;28;20515;-76
2022/05/19 16:23:04;;;;;;;2.33;1.63;;;26.10;66.80;;;;;;4993673;28;20169;-77
2022/05/19 16:25:32;;;;;;;4.30;1.57;;;26.40;68.20;;;;;;4993563;28;20550;-77
2022/05/19 16:27:58;;;;;;;7.13;1.60;;;26.00;67.70;;;;;;4992925;28;20416;-77
2022/05/19 16:30:26;;;;;;;2.20;1.50;;;26.00;67.70;;;;;;4999671;28;20408;-76
2022/05/19 16:32:52;;;;;;;5.60;1.60;;;26.20;68.00;;;;;;5000043;28;20426;-77
2022/05/19 16:35:19;;;;;;;8.30;1.80;;;26.30;68.40;;;;;;4997805;28;20530;-77
2022/05/19 16:37:53;;;;;;;2.33;1.53;;;26.20;69.10;;;;;;4992384;28;20424;-76
2022/05/19 16:40:19;;;;;;;14.27;1.70;;;26.00;69.50;;;;;;4993295;28;20463;-77
2022/05/19 16:42:45;;;;;;;3.00;1.40;;;26.00;69.80;;;;;;4993328;28;20424;-77
2022/05/19 16:45:11;;;;;;;9.03;1.70;;;25.90;68.80;;;;;;4993236;28;20268;-76
2022/05/19 16:47:38;;;;;;;5.30;1.50;;;25.90;67.90;;;;;;4986023;28;20524;-78
2022/05/19 16:50:05;;;;;;;34.47;2.60;;;25.60;69.40;;;;;;4988565;28;20181;-78
2022/05/19 16:52:31;;;;;;;3.73;1.80;;;25.20;69.10;;;;;;4992736;28;20440;-76
2022/05/19 16:57:44;;;;;;;4.07;2.37;;;25.00;70.10;;;;;;4955890;28;20243;-76
2022/05/19 17:00:28;;;;;;;3.20;2.00;;;25.10;69.50;;;;;;5000498;28;20448;-77
2022/05/19 17:02:54;;;;;;;4.73;1.53;;;25.30;70.30;;;;;;4986816;28;20832;-77
2022/05/19 17:05:21;;;;;;;5.47;1.80;;;25.40;68.70;;;;;;4994870;28;20487;-77
2022/05/19 17:07:48;;;;;;;4.67;1.83;;;25.30;70.40;;;;;;4995968;28;20181;-77
2022/05/19 17:10:21;;;;;;;8.73;1.90;;;25.30;69.80;;;;;;4996664;28;20435;-77
2022/05/19 17:12:47;;;;;;;5.93;1.50;;;25.20;69.80;;;;;;4997106;28;20416;-78
2022/05/19 17:15:14;;;;;;;3.27;1.63;;;25.10;69.80;;;;;;4977825;28;20574;-76
2022/05/19 17:17:40;;;;;;;6.13;1.77;;;24.90;70.00;;;;;;4993133;28;20411;-77
2022/05/19 17:20:06;;;;;;;4.30;1.40;;;24.80;70.60;;;;;;4994268;28;20416;-77
2022/05/19 17:22:32;;;;;;;4.77;1.87;;;24.80;70.20;;;;;;4992811;28;20566;-76
2022/05/19 17:24:57;;;;;;;4.03;2.03;;;24.70;71.80;;;;;;4992406;28;20428;-77
2022/05/19 17:27:23;;;;;;;6.77;1.57;;;24.50;71.50;;;;;;4992879;28;20226;-77
2022/05/19 17:29:48;;;;;;;5.07;1.40;;;24.40;71.30;;;;;;4975299;28;20726;-77
2022/05/19 17:32:14;;;;;;;2.63;1.70;;;24.30;72.50;;;;;;4993114;28;20199;-77
2022/05/19 17:34:39;;;;;;;3.17;1.73;;;24.30;72.30;;;;;;4994338;28;21463;-78
2022/05/19 17:37:06;;;;;;;5.03;1.87;;;24.40;73.00;;;;;;5013050;28;20185;-77
2022/05/19 17:39:32;;;;;;;4.90;1.67;;;24.30;74.20;;;;;;5012224;28;20653;-77
2022/05/19 17:41:58;;;;;;;11.57;2.03;;;24.20;71.70;;;;;;5012356;28;20574;-78
2022/05/19 17:44:24;;;;;;;2.90;1.40;;;24.10;72.30;;;;;;5013035;28;20205;-77
2022/05/19 17:46:49;;;;;;;3.10;1.43;;;23.90;72.70;;;;;;5013375;28;20165;-77
2022/05/19 17:49:15;;;;;;;7.60;1.90;;;23.90;72.30;;;;;;5012209;28;20419;-77
2022/05/19 17:51:40;;;;;;;2.10;1.50;;;23.80;72.70;;;;;;5012892;28;20742;-78
2022/05/19 17:54:06;;;;;;;4.33;2.07;;;23.70;73.80;;;;;;4983695;28;20287;-78
2022/05/19 17:56:36;;;;;;;2.33;1.50;;;23.60;73.20;;;;;;4998767;28;20169;-78
2022/05/19 17:59:01;;;;;;;4.40;1.90;;;23.50;72.90;;;;;;4997830;28;20169;-77
2022/05/19 18:04:03;;;;;;;9.00;1.60;;;23.10;74.80;;;;;;5984783;23;20192;-76
2022/05/19 18:06:28;;;;;;;4.80;2.10;;;23.10;74.70;;;;;;5011810;28;20462;-76
2022/05/19 18:08:54;;;;;;;2.47;1.30;;;23.00;75.40;;;;;;5008989;28;20176;-75
2022/05/19 18:11:19;;;;;;;8.83;1.70;;;22.90;75.80;;;;;;5011506;28;20243;-75
2022/05/19 18:13:45;;;;;;;3.27;1.50;;;22.70;76.00;;;;;;5006094;28;21435;-76
2022/05/19 18:18:57;;;;;;;3.67;1.47;;;22.40;77.50;;;;;;4992041;28;20959;-76
2022/05/19 18:21:24;;;;;;;3.57;1.67;;;22.40;77.10;;;;;;4992157;28;20806;-77
2022/05/19 18:23:49;;;;;;;3.83;1.60;;;22.30;77.30;;;;;;4992417;28;20436;-76
2022/05/19 18:26:18;;;;;;;2.47;1.60;;;22.20;77.90;;;;;;4992710;28;20441;-76
2022/05/19 18:28:46;;;;;;;9.20;1.70;;;22.10;78.50;;;;;;4992754;28;20634;-77
2022/05/19 18:31:12;;;;;;;3.40;1.37;;;21.90;78.10;;;;;;4989660;28;20463;-76